Weather at Adisutjipto International Airport

Public forecast

Using degrees Celsius for public forecast. Weather courtesy of forecast.io.

Closest aviation weather report (METAR) to Adisutjipto International Airport

Closest report is Juanda International Airport, 142.3 nm (263.5 km) E.

2024/05/29 20:30 (retrieved 31 minutes ago)

WARR 292030Z 19004KT 8000 FEW020 27/24 Q1009 NOSIG

Closest aviation forecast (TAF) to Adisutjipto International Airport

Closest forecast is Juanda International Airport, 142.3 nm (263.5 km) E.

2024/05/29 18:06 (retrieved 3 hours ago)

TAF WARR 291700Z 2918/3018 29005KT 8000 FEW020 BECMG 2920/2922 5000 HZ BECMG 3001/3003 10010KT 9999 NSW